sensor_id;sensor_type;location;lat;lon;timestamp;temperature;humidity
66035;HTU21D;52805;51.074;5.842;2022-08-21T00:02:15;19.17;70.48
66035;HTU21D;52805;51.074;5.842;2022-08-21T00:04:41;19.14;70.64
66035;HTU21D;52805;51.074;5.842;2022-08-21T00:07:07;19.11;70.75
66035;HTU21D;52805;51.074;5.842;2022-08-21T00:09:32;19.09;70.88
66035;HTU21D;52805;51.074;5.842;2022-08-21T00:11:58;19.06;70.99
66035;HTU21D;52805;51.074;5.842;2022-08-21T00:14:24;19.02;71.13
66035;HTU21D;52805;51.074;5.842;2022-08-21T00:16:50;18.98;71.30
66035;HTU21D;52805;51.074;5.842;2022-08-21T00:19:15;18.95;71.28
66035;HTU21D;52805;51.074;5.842;2022-08-21T00:21:41;18.93;71.32
66035;HTU21D;52805;51.074;5.842;2022-08-21T00:24:07;18.91;71.34
66035;HTU21D;52805;51.074;5.842;2022-08-21T00:26:33;18.91;71.39
66035;HTU21D;52805;51.074;5.842;2022-08-21T00:28:58;18.91;71.35
66035;HTU21D;52805;51.074;5.842;2022-08-21T00:31:24;18.89;71.40
66035;HTU21D;52805;51.074;5.842;2022-08-21T00:33:50;18.84;71.65
66035;HTU21D;52805;51.074;5.842;2022-08-21T00:36:16;18.80;71.87
66035;HTU21D;52805;51.074;5.842;2022-08-21T00:38:41;18.76;71.98
66035;HTU21D;52805;51.074;5.842;2022-08-21T00:41:09;18.72;71.97
66035;HTU21D;52805;51.074;5.842;2022-08-21T00:43:37;18.69;72.03
66035;HTU21D;52805;51.074;5.842;2022-08-21T00:46:05;18.66;71.99
66035;HTU21D;52805;51.074;5.842;2022-08-21T00:48:32;18.62;72.12
66035;HTU21D;52805;51.074;5.842;2022-08-21T00:51:11;18.58;72.32
66035;HTU21D;52805;51.074;5.842;2022-08-21T00:53:40;18.55;72.49
66035;HTU21D;52805;51.074;5.842;2022-08-21T00:56:10;18.52;72.54
66035;HTU21D;52805;51.074;5.842;2022-08-21T00:58:40;18.55;72.42
66035;HTU21D;52805;51.074;5.842;2022-08-21T01:01:08;18.54;72.48
66035;HTU21D;52805;51.074;5.842;2022-08-21T01:03:35;18.54;72.60
66035;HTU21D;52805;51.074;5.842;2022-08-21T01:06:01;18.53;72.79
66035;HTU21D;52805;51.074;5.842;2022-08-21T01:08:28;18.51;72.91
66035;HTU21D;52805;51.074;5.842;2022-08-21T01:10:55;18.48;73.00
66035;HTU21D;52805;51.074;5.842;2022-08-21T01:13:26;18.47;73.03
66035;HTU21D;52805;51.074;5.842;2022-08-21T01:15:55;18.44;73.02
66035;HTU21D;52805;51.074;5.842;2022-08-21T01:18:22;18.41;73.10
66035;HTU21D;52805;51.074;5.842;2022-08-21T01:21:10;18.39;73.15
66035;HTU21D;52805;51.074;5.842;2022-08-21T01:23:38;18.36;73.17
66035;HTU21D;52805;51.074;5.842;2022-08-21T01:26:06;18.32;73.22
66035;HTU21D;52805;51.074;5.842;2022-08-21T01:28:36;18.28;73.23
66035;HTU21D;52805;51.074;5.842;2022-08-21T01:31:07;18.26;73.26
66035;HTU21D;52805;51.074;5.842;2022-08-21T01:33:33;18.25;73.17
66035;HTU21D;52805;51.074;5.842;2022-08-21T01:35:59;18.28;73.10
66035;HTU21D;52805;51.074;5.842;2022-08-21T01:38:25;18.25;73.03
66035;HTU21D;52805;51.074;5.842;2022-08-21T01:40:51;18.24;72.96
66035;HTU21D;52805;51.074;5.842;2022-08-21T01:43:16;18.24;73.03
66035;HTU21D;52805;51.074;5.842;2022-08-21T01:45:42;18.23;73.06
66035;HTU21D;52805;51.074;5.842;2022-08-21T01:48:08;18.22;73.12
66035;HTU21D;52805;51.074;5.842;2022-08-21T01:50:34;18.21;73.19
66035;HTU21D;52805;51.074;5.842;2022-08-21T01:53:00;18.21;73.19
66035;HTU21D;52805;51.074;5.842;2022-08-21T01:55:25;18.20;73.37
66035;HTU21D;52805;51.074;5.842;2022-08-21T01:57:52;18.20;73.39
66035;HTU21D;52805;51.074;5.842;2022-08-21T02:00:21;18.21;73.41
66035;HTU21D;52805;51.074;5.842;2022-08-21T02:02:50;18.22;73.32
66035;HTU21D;52805;51.074;5.842;2022-08-21T02:05:17;18.19;73.31
66035;HTU21D;52805;51.074;5.842;2022-08-21T02:07:48;18.19;73.19
66035;HTU21D;52805;51.074;5.842;2022-08-21T02:10:19;18.18;73.15
66035;HTU21D;52805;51.074;5.842;2022-08-21T02:12:46;18.15;73.27
66035;HTU21D;52805;51.074;5.842;2022-08-21T02:15:12;18.15;73.25
66035;HTU21D;52805;51.074;5.842;2022-08-21T02:17:57;18.15;73.20
66035;HTU21D;52805;51.074;5.842;2022-08-21T02:20:27;18.14;73.06
66035;HTU21D;52805;51.074;5.842;2022-08-21T02:22:54;18.15;72.99
66035;HTU21D;52805;51.074;5.842;2022-08-21T02:25:21;18.14;73.03
66035;HTU21D;52805;51.074;5.842;2022-08-21T02:27:47;18.11;73.15
66035;HTU21D;52805;51.074;5.842;2022-08-21T02:30:20;18.08;73.22
66035;HTU21D;52805;51.074;5.842;2022-08-21T02:32:47;18.06;73.22
66035;HTU21D;52805;51.074;5.842;2022-08-21T02:35:13;18.06;73.12
66035;HTU21D;52805;51.074;5.842;2022-08-21T02:38:00;18.05;73.06
66035;HTU21D;52805;51.074;5.842;2022-08-21T02:40:30;18.03;73.00
66035;HTU21D;52805;51.074;5.842;2022-08-21T02:42:57;18.02;73.01
66035;HTU21D;52805;51.074;5.842;2022-08-21T02:45:24;17.98;73.08
66035;HTU21D;52805;51.074;5.842;2022-08-21T02:47:59;17.99;72.88
66035;HTU21D;52805;51.074;5.842;2022-08-21T02:50:32;18.00;72.69
66035;HTU21D;52805;51.074;5.842;2022-08-21T02:52:58;18.00;72.62
66035;HTU21D;52805;51.074;5.842;2022-08-21T02:55:26;18.00;72.46
66035;HTU21D;52805;51.074;5.842;2022-08-21T02:57:54;17.97;72.46
66035;HTU21D;52805;51.074;5.842;2022-08-21T03:00:22;17.95;72.38
66035;HTU21D;52805;51.074;5.842;2022-08-21T03:02:50;17.92;72.46
66035;HTU21D;52805;51.074;5.842;2022-08-21T03:05:17;17.92;72.38
66035;HTU21D;52805;51.074;5.842;2022-08-21T03:07:45;17.90;72.38
66035;HTU21D;52805;51.074;5.842;2022-08-21T03:10:13;17.89;72.35
66035;HTU21D;52805;51.074;5.842;2022-08-21T03:12:38;17.88;72.31
66035;HTU21D;52805;51.074;5.842;2022-08-21T03:15:07;17.83;72.30
66035;HTU21D;52805;51.074;5.842;2022-08-21T03:17:33;17.82;72.30
66035;HTU21D;52805;51.074;5.842;2022-08-21T03:20:00;17.79;72.31
66035;HTU21D;52805;51.074;5.842;2022-08-21T03:22:27;17.78;72.19
66035;HTU21D;52805;51.074;5.842;2022-08-21T03:24:53;17.75;72.29
66035;HTU21D;52805;51.074;5.842;2022-08-21T03:27:19;17.74;72.20
66035;HTU21D;52805;51.074;5.842;2022-08-21T03:29:45;17.74;72.06
66035;HTU21D;52805;51.074;5.842;2022-08-21T03:32:10;17.72;72.09
66035;HTU21D;52805;51.074;5.842;2022-08-21T03:34:38;17.68;72.18
66035;HTU21D;52805;51.074;5.842;2022-08-21T03:37:06;17.66;72.04
66035;HTU21D;52805;51.074;5.842;2022-08-21T03:39:32;17.68;71.83
66035;HTU21D;52805;51.074;5.842;2022-08-21T03:41:58;17.65;71.66
66035;HTU21D;52805;51.074;5.842;2022-08-21T03:44:26;17.62;71.79
66035;HTU21D;52805;51.074;5.842;2022-08-21T03:46:54;17.62;71.83
66035;HTU21D;52805;51.074;5.842;2022-08-21T03:49:20;17.59;71.81
66035;HTU21D;52805;51.074;5.842;2022-08-21T03:51:46;17.56;71.84
66035;HTU21D;52805;51.074;5.842;2022-08-21T03:54:12;17.54;71.96
66035;HTU21D;52805;51.074;5.842;2022-08-21T03:56:37;17.53;71.87
66035;HTU21D;52805;51.074;5.842;2022-08-21T03:59:05;17.52;71.92
66035;HTU21D;52805;51.074;5.842;2022-08-21T04:01:31;17.52;71.84
66035;HTU21D;52805;51.074;5.842;2022-08-21T04:03:57;17.52;71.93
66035;HTU21D;52805;51.074;5.842;2022-08-21T04:06:23;17.54;71.84
66035;HTU21D;52805;51.074;5.842;2022-08-21T04:08:48;17.54;71.81
66035;HTU21D;52805;51.074;5.842;2022-08-21T04:11:14;17.53;71.87
66035;HTU21D;52805;51.074;5.842;2022-08-21T04:13:40;17.55;71.80
66035;HTU21D;52805;51.074;5.842;2022-08-21T04:16:06;17.52;71.87
66035;HTU21D;52805;51.074;5.842;2022-08-21T04:18:32;17.52;71.82
66035;HTU21D;52805;51.074;5.842;2022-08-21T04:20:59;17.49;71.93
66035;HTU21D;52805;51.074;5.842;2022-08-21T04:23:26;17.49;71.98
66035;HTU21D;52805;51.074;5.842;2022-08-21T04:25:54;17.48;72.01
66035;HTU21D;52805;51.074;5.842;2022-08-21T04:28:25;17.48;71.96
66035;HTU21D;52805;51.074;5.842;2022-08-21T04:30:51;17.48;72.00
66035;HTU21D;52805;51.074;5.842;2022-08-21T04:33:18;17.47;71.93
66035;HTU21D;52805;51.074;5.842;2022-08-21T04:35:43;17.47;71.87
66035;HTU21D;52805;51.074;5.842;2022-08-21T04:38:09;17.44;71.94
66035;HTU21D;52805;51.074;5.842;2022-08-21T04:40:36;17.44;72.08
66035;HTU21D;52805;51.074;5.842;2022-08-21T04:43:05;17.43;72.13
66035;HTU21D;52805;51.074;5.842;2022-08-21T04:45:37;17.40;72.10
66035;HTU21D;52805;51.074;5.842;2022-08-21T04:48:06;17.43;71.96
66035;HTU21D;52805;51.074;5.842;2022-08-21T04:53:18;17.44;71.80
66035;HTU21D;52805;51.074;5.842;2022-08-21T04:55:47;17.43;71.67
66035;HTU21D;52805;51.074;5.842;2022-08-21T04:58:17;17.44;71.65
66035;HTU21D;52805;51.074;5.842;2022-08-21T05:00:43;17.43;71.55
66035;HTU21D;52805;51.074;5.842;2022-08-21T05:03:11;17.41;71.51
66035;HTU21D;52805;51.074;5.842;2022-08-21T05:05:38;17.40;71.56
66035;HTU21D;52805;51.074;5.842;2022-08-21T05:08:07;17.41;71.63
66035;HTU21D;52805;51.074;5.842;2022-08-21T05:10:35;17.39;71.61
66035;HTU21D;52805;51.074;5.842;2022-08-21T05:13:01;17.39;71.58
66035;HTU21D;52805;51.074;5.842;2022-08-21T05:15:27;17.40;71.55
66035;HTU21D;52805;51.074;5.842;2022-08-21T05:17:53;17.41;71.45
66035;HTU21D;52805;51.074;5.842;2022-08-21T05:20:19;17.41;71.42
66035;HTU21D;52805;51.074;5.842;2022-08-21T05:22:45;17.43;71.51
66035;HTU21D;52805;51.074;5.842;2022-08-21T05:25:11;17.44;71.50
66035;HTU21D;52805;51.074;5.842;2022-08-21T05:27:38;17.46;71.40
66035;HTU21D;52805;51.074;5.842;2022-08-21T05:30:06;17.48;71.38
66035;HTU21D;52805;51.074;5.842;2022-08-21T05:32:33;17.48;71.26
66035;HTU21D;52805;51.074;5.842;2022-08-21T05:34:59;17.50;71.25
66035;HTU21D;52805;51.074;5.842;2022-08-21T05:37:25;17.54;71.04
66035;HTU21D;52805;51.074;5.842;2022-08-21T05:39:51;17.54;71.06
66035;HTU21D;52805;51.074;5.842;2022-08-21T05:42:16;17.55;71.16
66035;HTU21D;52805;51.074;5.842;2022-08-21T05:44:42;17.58;71.13
66035;HTU21D;52805;51.074;5.842;2022-08-21T05:47:10;17.60;71.10
66035;HTU21D;52805;51.074;5.842;2022-08-21T05:49:36;17.64;70.97
66035;HTU21D;52805;51.074;5.842;2022-08-21T05:52:03;17.65;71.03
66035;HTU21D;52805;51.074;5.842;2022-08-21T05:54:29;17.66;71.03
66035;HTU21D;52805;51.074;5.842;2022-08-21T05:56:54;17.69;71.12
66035;HTU21D;52805;51.074;5.842;2022-08-21T05:59:20;17.72;71.15
66035;HTU21D;52805;51.074;5.842;2022-08-21T06:01:46;17.74;71.04
66035;HTU21D;52805;51.074;5.842;2022-08-21T06:04:12;17.75;70.98
66035;HTU21D;52805;51.074;5.842;2022-08-21T06:06:39;17.78;70.91
66035;HTU21D;52805;51.074;5.842;2022-08-21T06:09:05;17.80;70.86
66035;HTU21D;52805;51.074;5.842;2022-08-21T06:11:32;17.81;70.88
66035;HTU21D;52805;51.074;5.842;2022-08-21T06:13:58;17.85;70.85
66035;HTU21D;52805;51.074;5.842;2022-08-21T06:16:25;17.91;70.87
66035;HTU21D;52805;51.074;5.842;2022-08-21T06:18:51;17.90;70.91
66035;HTU21D;52805;51.074;5.842;2022-08-21T06:21:17;17.92;70.93
66035;HTU21D;52805;51.074;5.842;2022-08-21T06:23:42;17.94;70.99
66035;HTU21D;52805;51.074;5.842;2022-08-21T06:26:11;17.97;70.97
66035;HTU21D;52805;51.074;5.842;2022-08-21T06:28:38;18.03;71.09
66035;HTU21D;52805;51.074;5.842;2022-08-21T06:33:37;18.09;70.96
66035;HTU21D;52805;51.074;5.842;2022-08-21T06:36:03;18.10;71.12
66035;HTU21D;52805;51.074;5.842;2022-08-21T06:38:29;18.14;71.32
66035;HTU21D;52805;51.074;5.842;2022-08-21T06:40:54;18.19;71.48
66035;HTU21D;52805;51.074;5.842;2022-08-21T06:43:20;18.24;71.33
66035;HTU21D;52805;51.074;5.842;2022-08-21T06:45:46;18.25;71.45
66035;HTU21D;52805;51.074;5.842;2022-08-21T06:48:11;18.32;71.34
66035;HTU21D;52805;51.074;5.842;2022-08-21T06:50:37;18.38;71.08
66035;HTU21D;52805;51.074;5.842;2022-08-21T06:53:07;18.38;70.88
66035;HTU21D;52805;51.074;5.842;2022-08-21T06:55:33;18.41;70.87
66035;HTU21D;52805;51.074;5.842;2022-08-21T06:57:59;18.40;71.05
66035;HTU21D;52805;51.074;5.842;2022-08-21T07:00:26;18.43;71.07
66035;HTU21D;52805;51.074;5.842;2022-08-21T07:02:52;18.51;70.96
66035;HTU21D;52805;51.074;5.842;2022-08-21T07:05:17;18.56;70.78
66035;HTU21D;52805;51.074;5.842;2022-08-21T07:07:43;18.62;70.28
66035;HTU21D;52805;51.074;5.842;2022-08-21T07:10:09;18.64;70.19
66035;HTU21D;52805;51.074;5.842;2022-08-21T07:12:35;18.66;69.94
66035;HTU21D;52805;51.074;5.842;2022-08-21T07:15:01;18.67;69.89
66035;HTU21D;52805;51.074;5.842;2022-08-21T07:17:26;18.69;69.75
66035;HTU21D;52805;51.074;5.842;2022-08-21T07:19:52;18.74;69.78
66035;HTU21D;52805;51.074;5.842;2022-08-21T07:22:21;18.81;69.63
66035;HTU21D;52805;51.074;5.842;2022-08-21T07:24:46;18.94;69.29
66035;HTU21D;52805;51.074;5.842;2022-08-21T07:27:12;18.99;69.26
66035;HTU21D;52805;51.074;5.842;2022-08-21T07:29:38;19.09;68.97
66035;HTU21D;52805;51.074;5.842;2022-08-21T07:32:05;19.18;68.71
66035;HTU21D;52805;51.074;5.842;2022-08-21T07:34:31;19.28;68.19
66035;HTU21D;52805;51.074;5.842;2022-08-21T07:36:57;19.39;67.88
66035;HTU21D;52805;51.074;5.842;2022-08-21T07:39:24;19.47;67.65
66035;HTU21D;52805;51.074;5.842;2022-08-21T07:41:49;19.56;67.43
66035;HTU21D;52805;51.074;5.842;2022-08-21T07:44:15;19.63;67.24
66035;HTU21D;52805;51.074;5.842;2022-08-21T07:46:41;19.72;67.01
66035;HTU21D;52805;51.074;5.842;2022-08-21T07:49:06;19.82;66.73
66035;HTU21D;52805;51.074;5.842;2022-08-21T07:51:33;19.89;66.42
66035;HTU21D;52805;51.074;5.842;2022-08-21T07:54:00;19.97;66.24
66035;HTU21D;52805;51.074;5.842;2022-08-21T07:56:27;19.98;66.03
66035;HTU21D;52805;51.074;5.842;2022-08-21T07:58:53;20.02;66.03
66035;HTU21D;52805;51.074;5.842;2022-08-21T08:01:20;20.06;66.02
66035;HTU21D;52805;51.074;5.842;2022-08-21T08:03:46;20.14;65.93
66035;HTU21D;52805;51.074;5.842;2022-08-21T08:06:11;20.20;65.83
66035;HTU21D;52805;51.074;5.842;2022-08-21T08:08:42;20.27;65.66
66035;HTU21D;52805;51.074;5.842;2022-08-21T08:11:09;20.28;65.47
66035;HTU21D;52805;51.074;5.842;2022-08-21T08:13:48;20.34;65.35
66035;HTU21D;52805;51.074;5.842;2022-08-21T08:16:15;20.35;65.37
66035;HTU21D;52805;51.074;5.842;2022-08-21T08:18:40;20.44;65.40
66035;HTU21D;52805;51.074;5.842;2022-08-21T08:21:08;20.47;65.06
66035;HTU21D;52805;51.074;5.842;2022-08-21T08:23:34;20.56;64.68
66035;HTU21D;52805;51.074;5.842;2022-08-21T08:26:00;20.61;64.71
66035;HTU21D;52805;51.074;5.842;2022-08-21T08:28:29;20.74;64.41
66035;HTU21D;52805;51.074;5.842;2022-08-21T08:30:55;20.88;63.89
66035;HTU21D;52805;51.074;5.842;2022-08-21T08:33:21;21.01;63.66
66035;HTU21D;52805;51.074;5.842;2022-08-21T08:35:49;21.25;62.62
66035;HTU21D;52805;51.074;5.842;2022-08-21T08:38:18;21.33;62.16
66035;HTU21D;52805;51.074;5.842;2022-08-21T08:43:14;21.45;61.80
66035;HTU21D;52805;51.074;5.842;2022-08-21T08:45:45;21.49;61.55
66035;HTU21D;52805;51.074;5.842;2022-08-21T08:48:16;21.51;61.29
66035;HTU21D;52805;51.074;5.842;2022-08-21T08:50:52;21.48;61.42
66035;HTU21D;52805;51.074;5.842;2022-08-21T08:53:33;21.48;61.38
66035;HTU21D;52805;51.074;5.842;2022-08-21T08:56:04;21.47;61.85
66035;HTU21D;52805;51.074;5.842;2022-08-21T08:58:35;21.52;61.53
66035;HTU21D;52805;51.074;5.842;2022-08-21T09:01:09;21.51;61.49
66035;HTU21D;52805;51.074;5.842;2022-08-21T09:03:39;21.50;61.31
66035;HTU21D;52805;51.074;5.842;2022-08-21T09:08:50;21.65;60.72
66035;HTU21D;52805;51.074;5.842;2022-08-21T09:17:02;21.93;60.09
66035;HTU21D;52805;51.074;5.842;2022-08-21T09:19:49;22.03;59.56
66035;HTU21D;52805;51.074;5.842;2022-08-21T09:22:51;22.10;59.25
66035;HTU21D;52805;51.074;5.842;2022-08-21T09:25:22;22.19;58.84
66035;HTU21D;52805;51.074;5.842;2022-08-21T09:27:49;22.28;58.72
66035;HTU21D;52805;51.074;5.842;2022-08-21T09:30:17;22.37;58.48
66035;HTU21D;52805;51.074;5.842;2022-08-21T09:32:44;22.39;58.29
66035;HTU21D;52805;51.074;5.842;2022-08-21T09:35:16;22.41;57.98
66035;HTU21D;52805;51.074;5.842;2022-08-21T09:37:47;22.46;57.91
66035;HTU21D;52805;51.074;5.842;2022-08-21T09:43:03;22.56;57.51
66035;HTU21D;52805;51.074;5.842;2022-08-21T09:45:29;22.58;57.25
66035;HTU21D;52805;51.074;5.842;2022-08-21T09:47:55;22.55;57.56
66035;HTU21D;52805;51.074;5.842;2022-08-21T09:50:28;22.61;57.65
66035;HTU21D;52805;51.074;5.842;2022-08-21T09:53:00;22.70;57.60
66035;HTU21D;52805;51.074;5.842;2022-08-21T09:58:39;23.00;56.87
66035;HTU21D;52805;51.074;5.842;2022-08-21T10:01:06;23.12;56.79
66035;HTU21D;52805;51.074;5.842;2022-08-21T10:03:37;23.23;56.46
66035;HTU21D;52805;51.074;5.842;2022-08-21T10:06:06;23.29;55.96
66035;HTU21D;52805;51.074;5.842;2022-08-21T10:08:36;23.36;55.79
66035;HTU21D;52805;51.074;5.842;2022-08-21T10:11:23;23.45;55.56
66035;HTU21D;52805;51.074;5.842;2022-08-21T10:14:16;23.52;55.48
66035;HTU21D;52805;51.074;5.842;2022-08-21T10:22:32;23.83;54.47
66035;HTU21D;52805;51.074;5.842;2022-08-21T10:25:43;23.77;54.26
66035;HTU21D;52805;51.074;5.842;2022-08-21T10:28:21;23.77;54.17
66035;HTU21D;52805;51.074;5.842;2022-08-21T10:33:40;23.87;54.09
66035;HTU21D;52805;51.074;5.842;2022-08-21T10:39:28;24.14;53.27
66035;HTU21D;52805;51.074;5.842;2022-08-21T10:42:27;24.30;52.48
66035;HTU21D;52805;51.074;5.842;2022-08-21T10:58:26;24.70;50.85
66035;HTU21D;52805;51.074;5.842;2022-08-21T11:01:16;24.74;50.75
66035;HTU21D;52805;51.074;5.842;2022-08-21T11:03:46;24.83;50.53
66035;HTU21D;52805;51.074;5.842;2022-08-21T11:06:21;24.89;50.56
66035;HTU21D;52805;51.074;5.842;2022-08-21T11:08:58;25.00;50.09
66035;HTU21D;52805;51.074;5.842;2022-08-21T11:11:39;25.06;49.71
66035;HTU21D;52805;51.074;5.842;2022-08-21T11:14:34;25.19;49.23
66035;HTU21D;52805;51.074;5.842;2022-08-21T11:17:12;25.15;48.80
66035;HTU21D;52805;51.074;5.842;2022-08-21T11:20:34;25.07;48.98
66035;HTU21D;52805;51.074;5.842;2022-08-21T11:23:11;25.05;49.14
66035;HTU21D;52805;51.074;5.842;2022-08-21T11:25:49;25.07;49.08
66035;HTU21D;52805;51.074;5.842;2022-08-21T11:31:10;25.10;48.71
66035;HTU21D;52805;51.074;5.842;2022-08-21T11:34:00;25.16;48.71
66035;HTU21D;52805;51.074;5.842;2022-08-21T11:39:27;25.25;48.53
66035;HTU21D;52805;51.074;5.842;2022-08-21T11:47:12;25.61;47.54
66035;HTU21D;52805;51.074;5.842;2022-08-21T11:50:32;25.69;47.36
66035;HTU21D;52805;51.074;5.842;2022-08-21T11:53:28;25.90;46.58
66035;HTU21D;52805;51.074;5.842;2022-08-21T11:56:06;25.87;46.28
66035;HTU21D;52805;51.074;5.842;2022-08-21T11:58:42;25.86;46.25
66035;HTU21D;52805;51.074;5.842;2022-08-21T12:03:50;26.04;45.99
66035;HTU21D;52805;51.074;5.842;2022-08-21T12:06:30;26.10;45.65
66035;HTU21D;52805;51.074;5.842;2022-08-21T12:15:26;26.41;45.03
66035;HTU21D;52805;51.074;5.842;2022-08-21T12:17:59;26.49;44.44
66035;HTU21D;52805;51.074;5.842;2022-08-21T12:20:36;26.48;44.50
66035;HTU21D;52805;51.074;5.842;2022-08-21T12:23:16;26.53;44.55
66035;HTU21D;52805;51.074;5.842;2022-08-21T12:25:44;26.61;44.55
66035;HTU21D;52805;51.074;5.842;2022-08-21T12:28:15;26.73;43.07
66035;HTU21D;52805;51.074;5.842;2022-08-21T12:30:46;26.82;43.39
66035;HTU21D;52805;51.074;5.842;2022-08-21T12:33:33;26.79;43.23
66035;HTU21D;52805;51.074;5.842;2022-08-21T12:36:30;26.83;42.93
66035;HTU21D;52805;51.074;5.842;2022-08-21T12:39:03;26.84;42.87
66035;HTU21D;52805;51.074;5.842;2022-08-21T12:41:44;26.84;42.68
66035;HTU21D;52805;51.074;5.842;2022-08-21T12:44:17;26.89;42.66
66035;HTU21D;52805;51.074;5.842;2022-08-21T12:47:01;26.96;42.55
66035;HTU21D;52805;51.074;5.842;2022-08-21T12:49:35;27.04;42.47
66035;HTU21D;52805;51.074;5.842;2022-08-21T12:52:23;27.17;42.20
66035;HTU21D;52805;51.074;5.842;2022-08-21T12:54:49;27.26;41.98
66035;HTU21D;52805;51.074;5.842;2022-08-21T12:57:36;27.29;42.05
66035;HTU21D;52805;51.074;5.842;2022-08-21T13:00:06;27.36;42.06
66035;HTU21D;52805;51.074;5.842;2022-08-21T13:02:39;27.38;41.99
66035;HTU21D;52805;51.074;5.842;2022-08-21T13:05:15;27.28;41.75
66035;HTU21D;52805;51.074;5.842;2022-08-21T13:07:47;27.13;41.92
66035;HTU21D;52805;51.074;5.842;2022-08-21T13:10:23;27.07;42.16
66035;HTU21D;52805;51.074;5.842;2022-08-21T13:12:54;27.10;41.65
66035;HTU21D;52805;51.074;5.842;2022-08-21T13:15:32;27.07;41.77
66035;HTU21D;52805;51.074;5.842;2022-08-21T13:18:01;27.00;41.76
66035;HTU21D;52805;51.074;5.842;2022-08-21T13:20:31;26.95;41.97
66035;HTU21D;52805;51.074;5.842;2022-08-21T13:22:57;26.99;42.02
66035;HTU21D;52805;51.074;5.842;2022-08-21T13:25:33;26.98;42.05
66035;HTU21D;52805;51.074;5.842;2022-08-21T13:28:10;27.01;42.20
66035;HTU21D;52805;51.074;5.842;2022-08-21T13:30:50;27.09;42.18
66035;HTU21D;52805;51.074;5.842;2022-08-21T13:33:19;27.15;41.40
66035;HTU21D;52805;51.074;5.842;2022-08-21T13:38:28;27.31;41.83
66035;HTU21D;52805;51.074;5.842;2022-08-21T13:41:08;27.42;41.62
66035;HTU21D;52805;51.074;5.842;2022-08-21T13:43:37;27.44;41.52
66035;HTU21D;52805;51.074;5.842;2022-08-21T13:46:10;27.55;40.78
66035;HTU21D;52805;51.074;5.842;2022-08-21T13:48:37;27.56;41.10
66035;HTU21D;52805;51.074;5.842;2022-08-21T13:51:04;27.64;41.08
66035;HTU21D;52805;51.074;5.842;2022-08-21T13:56:06;27.90;40.30
66035;HTU21D;52805;51.074;5.842;2022-08-21T13:58:46;27.99;40.24
66035;HTU21D;52805;51.074;5.842;2022-08-21T14:03:57;28.15;39.27
66035;HTU21D;52805;51.074;5.842;2022-08-21T14:06:27;28.18;39.23
66035;HTU21D;52805;51.074;5.842;2022-08-21T14:09:01;28.20;36.33
66035;HTU21D;52805;51.074;5.842;2022-08-21T14:11:33;28.20;39.20
66035;HTU21D;52805;51.074;5.842;2022-08-21T14:14:11;28.28;39.14
66035;HTU21D;52805;51.074;5.842;2022-08-21T14:19:27;28.24;38.25
66035;HTU21D;52805;51.074;5.842;2022-08-21T14:21:53;28.21;38.58
66035;HTU21D;52805;51.074;5.842;2022-08-21T14:26:52;28.24;38.65
66035;HTU21D;52805;51.074;5.842;2022-08-21T14:29:21;28.31;37.79
66035;HTU21D;52805;51.074;5.842;2022-08-21T14:31:57;28.41;38.19
66035;HTU21D;52805;51.074;5.842;2022-08-21T14:34:28;28.43;37.88
66035;HTU21D;52805;51.074;5.842;2022-08-21T14:36:55;28.45;37.95
66035;HTU21D;52805;51.074;5.842;2022-08-21T14:39:21;28.53;37.49
66035;HTU21D;52805;51.074;5.842;2022-08-21T14:41:48;28.52;37.46
66035;HTU21D;52805;51.074;5.842;2022-08-21T14:44:18;28.52;37.61
66035;HTU21D;52805;51.074;5.842;2022-08-21T14:46:45;28.46;37.66
66035;HTU21D;52805;51.074;5.842;2022-08-21T14:49:11;28.40;37.80
66035;HTU21D;52805;51.074;5.842;2022-08-21T14:51:38;28.35;37.70
66035;HTU21D;52805;51.074;5.842;2022-08-21T14:54:05;28.23;37.93
66035;HTU21D;52805;51.074;5.842;2022-08-21T14:56:32;28.16;37.92
66035;HTU21D;52805;51.074;5.842;2022-08-21T14:59:03;28.04;37.97
66035;HTU21D;52805;51.074;5.842;2022-08-21T15:01:34;27.98;38.27
66035;HTU21D;52805;51.074;5.842;2022-08-21T15:04:00;27.94;38.46
66035;HTU21D;52805;51.074;5.842;2022-08-21T15:06:25;27.97;38.40
66035;HTU21D;52805;51.074;5.842;2022-08-21T15:08:51;28.00;38.11
66035;HTU21D;52805;51.074;5.842;2022-08-21T15:11:20;28.08;37.85
66035;HTU21D;52805;51.074;5.842;2022-08-21T15:13:47;28.21;37.64
66035;HTU21D;52805;51.074;5.842;2022-08-21T15:16:15;28.09;37.66
66035;HTU21D;52805;51.074;5.842;2022-08-21T15:18:41;27.88;38.02
66035;HTU21D;52805;51.074;5.842;2022-08-21T15:21:08;27.73;38.17
66035;HTU21D;52805;51.074;5.842;2022-08-21T15:23:33;27.61;38.46
66035;HTU21D;52805;51.074;5.842;2022-08-21T15:26:00;27.56;38.66
66035;HTU21D;52805;51.074;5.842;2022-08-21T15:28:26;27.57;38.75
66035;HTU21D;52805;51.074;5.842;2022-08-21T15:30:52;27.50;38.80
66035;HTU21D;52805;51.074;5.842;2022-08-21T15:33:18;27.43;39.07
66035;HTU21D;52805;51.074;5.842;2022-08-21T15:35:44;27.40;39.15
66035;HTU21D;52805;51.074;5.842;2022-08-21T15:38:12;27.40;39.32
66035;HTU21D;52805;51.074;5.842;2022-08-21T15:40:41;27.40;39.10
66035;HTU21D;52805;51.074;5.842;2022-08-21T15:43:18;27.41;38.94
66035;HTU21D;52805;51.074;5.842;2022-08-21T15:45:46;27.46;39.00
66035;HTU21D;52805;51.074;5.842;2022-08-21T15:48:12;27.55;38.86
66035;HTU21D;52805;51.074;5.842;2022-08-21T15:50:37;27.58;38.58
66035;HTU21D;52805;51.074;5.842;2022-08-21T15:53:03;27.56;38.92
66035;HTU21D;52805;51.074;5.842;2022-08-21T15:55:29;27.55;38.82
66035;HTU21D;52805;51.074;5.842;2022-08-21T15:57:54;27.53;39.21
66035;HTU21D;52805;51.074;5.842;2022-08-21T16:00:23;27.49;39.07
66035;HTU21D;52805;51.074;5.842;2022-08-21T16:02:53;27.37;39.16
66035;HTU21D;52805;51.074;5.842;2022-08-21T16:05:20;27.25;39.49
66035;HTU21D;52805;51.074;5.842;2022-08-21T16:07:47;27.16;39.72
66035;HTU21D;52805;51.074;5.842;2022-08-21T16:10:15;27.09;39.87
66035;HTU21D;52805;51.074;5.842;2022-08-21T16:12:45;27.06;39.95
66035;HTU21D;52805;51.074;5.842;2022-08-21T16:15:14;27.04;39.91
66035;HTU21D;52805;51.074;5.842;2022-08-21T16:17:43;27.07;39.88
66035;HTU21D;52805;51.074;5.842;2022-08-21T16:20:18;27.07;39.94
66035;HTU21D;52805;51.074;5.842;2022-08-21T16:22:45;27.07;40.03
66035;HTU21D;52805;51.074;5.842;2022-08-21T16:25:15;27.07;40.03
66035;HTU21D;52805;51.074;5.842;2022-08-21T16:27:50;27.12;40.03
66035;HTU21D;52805;51.074;5.842;2022-08-21T16:30:18;27.13;39.86
66035;HTU21D;52805;51.074;5.842;2022-08-21T16:32:44;27.16;39.74
66035;HTU21D;52805;51.074;5.842;2022-08-21T16:35:13;27.23;39.90
66035;HTU21D;52805;51.074;5.842;2022-08-21T16:37:41;27.29;39.78
66035;HTU21D;52805;51.074;5.842;2022-08-21T16:40:08;27.28;39.86
66035;HTU21D;52805;51.074;5.842;2022-08-21T16:42:36;27.24;39.98
66035;HTU21D;52805;51.074;5.842;2022-08-21T16:45:09;27.15;40.19
66035;HTU21D;52805;51.074;5.842;2022-08-21T16:47:35;27.12;40.44
66035;HTU21D;52805;51.074;5.842;2022-08-21T16:50:02;27.07;40.28
66035;HTU21D;52805;51.074;5.842;2022-08-21T16:52:29;26.99;40.68